sensor_id;sensor_type;location;lat;lon;timestamp;P1;durP1;ratioP1;P2;durP2;ratioP2
10985;SDS011;5546;48.714;8.738;2022-11-09T00:00:30;5.73;;;4.87;;
10985;SDS011;5546;48.714;8.738;2022-11-09T00:02:56;6.33;;;4.60;;
10985;SDS011;5546;48.714;8.738;2022-11-09T00:05:21;10.30;;;5.80;;
10985;SDS011;5546;48.714;8.738;2022-11-09T00:07:47;12.50;;;6.17;;
10985;SDS011;5546;48.714;8.738;2022-11-09T00:10:12;10.00;;;5.97;;
10985;SDS011;5546;48.714;8.738;2022-11-09T00:12:38;10.77;;;6.07;;
10985;SDS011;5546;48.714;8.738;2022-11-09T00:15:03;10.87;;;6.63;;
10985;SDS011;5546;48.714;8.738;2022-11-09T00:17:29;14.43;;;7.97;;
10985;SDS011;5546;48.714;8.738;2022-11-09T00:19:55;10.47;;;5.67;;
10985;SDS011;5546;48.714;8.738;2022-11-09T00:22:20;9.53;;;4.60;;
10985;SDS011;5546;48.714;8.738;2022-11-09T00:24:46;8.43;;;4.90;;
10985;SDS011;5546;48.714;8.738;2022-11-09T00:27:11;8.30;;;4.87;;
10985;SDS011;5546;48.714;8.738;2022-11-09T00:29:37;6.03;;;4.47;;
10985;SDS011;5546;48.714;8.738;2022-11-09T00:32:02;4.87;;;3.67;;
10985;SDS011;5546;48.714;8.738;2022-11-09T00:34:28;11.73;;;5.60;;
10985;SDS011;5546;48.714;8.738;2022-11-09T00:36:53;11.27;;;4.33;;
10985;SDS011;5546;48.714;8.738;2022-11-09T00:39:19;7.33;;;4.83;;
10985;SDS011;5546;48.714;8.738;2022-11-09T00:41:44;6.83;;;4.10;;
10985;SDS011;5546;48.714;8.738;2022-11-09T00:44:10;7.87;;;4.17;;
10985;SDS011;5546;48.714;8.738;2022-11-09T00:46:35;6.37;;;4.63;;
10985;SDS011;5546;48.714;8.738;2022-11-09T00:49:01;6.67;;;4.43;;
10985;SDS011;5546;48.714;8.738;2022-11-09T00:51:26;9.20;;;4.70;;
10985;SDS011;5546;48.714;8.738;2022-11-09T00:53:52;5.00;;;4.23;;
10985;SDS011;5546;48.714;8.738;2022-11-09T00:56:19;5.07;;;4.10;;
10985;SDS011;5546;48.714;8.738;2022-11-09T00:58:45;6.47;;;3.93;;
10985;SDS011;5546;48.714;8.738;2022-11-09T01:01:12;6.87;;;4.30;;
10985;SDS011;5546;48.714;8.738;2022-11-09T01:03:40;4.43;;;3.93;;
10985;SDS011;5546;48.714;8.738;2022-11-09T01:06:06;4.47;;;3.83;;
10985;SDS011;5546;48.714;8.738;2022-11-09T01:08:33;6.77;;;4.43;;
10985;SDS011;5546;48.714;8.738;2022-11-09T01:11:06;5.57;;;4.30;;
10985;SDS011;5546;48.714;8.738;2022-11-09T01:13:33;5.20;;;4.70;;
10985;SDS011;5546;48.714;8.738;2022-11-09T01:16:02;7.10;;;5.00;;
10985;SDS011;5546;48.714;8.738;2022-11-09T01:18:39;7.17;;;4.60;;
10985;SDS011;5546;48.714;8.738;2022-11-09T01:21:05;6.73;;;4.67;;
10985;SDS011;5546;48.714;8.738;2022-11-09T01:23:32;8.50;;;5.00;;
10985;SDS011;5546;48.714;8.738;2022-11-09T01:26:03;9.43;;;5.47;;
10985;SDS011;5546;48.714;8.738;2022-11-09T01:28:30;6.77;;;4.20;;
10985;SDS011;5546;48.714;8.738;2022-11-09T01:30:59;6.33;;;4.30;;
10985;SDS011;5546;48.714;8.738;2022-11-09T01:33:26;8.43;;;4.30;;
10985;SDS011;5546;48.714;8.738;2022-11-09T01:35:52;7.60;;;4.60;;
10985;SDS011;5546;48.714;8.738;2022-11-09T01:38:17;6.27;;;4.47;;
10985;SDS011;5546;48.714;8.738;2022-11-09T01:40:43;7.27;;;4.93;;
10985;SDS011;5546;48.714;8.738;2022-11-09T01:43:19;6.20;;;4.77;;
10985;SDS011;5546;48.714;8.738;2022-11-09T01:45:47;5.40;;;4.90;;
10985;SDS011;5546;48.714;8.738;2022-11-09T01:48:23;7.17;;;4.97;;
10985;SDS011;5546;48.714;8.738;2022-11-09T01:50:58;6.37;;;4.70;;
10985;SDS011;5546;48.714;8.738;2022-11-09T01:53:30;8.03;;;4.17;;
10985;SDS011;5546;48.714;8.738;2022-11-09T01:56:00;5.70;;;4.53;;
10985;SDS011;5546;48.714;8.738;2022-11-09T01:58:33;6.20;;;4.50;;
10985;SDS011;5546;48.714;8.738;2022-11-09T02:01:03;7.20;;;4.30;;
10985;SDS011;5546;48.714;8.738;2022-11-09T02:03:36;6.07;;;4.23;;
10985;SDS011;5546;48.714;8.738;2022-11-09T02:06:04;4.77;;;4.27;;
10985;SDS011;5546;48.714;8.738;2022-11-09T02:08:32;8.90;;;4.87;;
10985;SDS011;5546;48.714;8.738;2022-11-09T02:13:35;5.10;;;4.10;;
10985;SDS011;5546;48.714;8.738;2022-11-09T02:16:04;7.43;;;4.33;;
10985;SDS011;5546;48.714;8.738;2022-11-09T02:18:30;6.17;;;4.10;;
10985;SDS011;5546;48.714;8.738;2022-11-09T02:20:56;7.87;;;4.37;;
10985;SDS011;5546;48.714;8.738;2022-11-09T02:23:23;5.20;;;4.50;;
10985;SDS011;5546;48.714;8.738;2022-11-09T02:25:51;6.70;;;4.47;;
10985;SDS011;5546;48.714;8.738;2022-11-09T02:28:27;6.27;;;4.33;;
10985;SDS011;5546;48.714;8.738;2022-11-09T02:30:55;4.83;;;4.33;;
10985;SDS011;5546;48.714;8.738;2022-11-09T02:33:22;6.93;;;4.47;;
10985;SDS011;5546;48.714;8.738;2022-11-09T02:35:47;7.17;;;4.57;;
10985;SDS011;5546;48.714;8.738;2022-11-09T02:38:13;6.73;;;4.30;;
10985;SDS011;5546;48.714;8.738;2022-11-09T02:40:43;6.33;;;4.10;;
10985;SDS011;5546;48.714;8.738;2022-11-09T02:43:12;8.07;;;4.90;;
10985;SDS011;5546;48.714;8.738;2022-11-09T02:45:39;6.27;;;4.50;;
10985;SDS011;5546;48.714;8.738;2022-11-09T02:48:05;6.90;;;4.50;;
10985;SDS011;5546;48.714;8.738;2022-11-09T02:50:31;8.77;;;4.70;;
10985;SDS011;5546;48.714;8.738;2022-11-09T02:52:56;7.23;;;4.70;;
10985;SDS011;5546;48.714;8.738;2022-11-09T02:55:22;7.23;;;4.70;;
10985;SDS011;5546;48.714;8.738;2022-11-09T02:57:47;7.30;;;5.00;;
10985;SDS011;5546;48.714;8.738;2022-11-09T03:00:13;6.10;;;4.63;;
10985;SDS011;5546;48.714;8.738;2022-11-09T03:02:38;6.27;;;4.90;;
10985;SDS011;5546;48.714;8.738;2022-11-09T03:05:05;5.77;;;4.47;;
10985;SDS011;5546;48.714;8.738;2022-11-09T03:07:30;6.17;;;4.70;;
10985;SDS011;5546;48.714;8.738;2022-11-09T03:09:56;7.47;;;4.50;;
10985;SDS011;5546;48.714;8.738;2022-11-09T03:12:22;8.37;;;4.97;;
10985;SDS011;5546;48.714;8.738;2022-11-09T03:15:04;5.37;;;4.63;;
10985;SDS011;5546;48.714;8.738;2022-11-09T03:17:31;6.27;;;4.80;;
10985;SDS011;5546;48.714;8.738;2022-11-09T03:19:57;7.83;;;5.53;;
10985;SDS011;5546;48.714;8.738;2022-11-09T03:22:22;7.10;;;4.83;;
10985;SDS011;5546;48.714;8.738;2022-11-09T03:24:48;8.77;;;5.23;;
10985;SDS011;5546;48.714;8.738;2022-11-09T03:27:14;5.30;;;4.80;;
10985;SDS011;5546;48.714;8.738;2022-11-09T03:29:39;6.37;;;5.37;;
10985;SDS011;5546;48.714;8.738;2022-11-09T03:32:05;6.73;;;5.17;;
10985;SDS011;5546;48.714;8.738;2022-11-09T03:34:31;8.47;;;4.60;;
10985;SDS011;5546;48.714;8.738;2022-11-09T03:36:56;7.50;;;5.00;;
10985;SDS011;5546;48.714;8.738;2022-11-09T03:39:22;8.20;;;5.30;;
10985;SDS011;5546;48.714;8.738;2022-11-09T03:41:47;7.57;;;5.40;;
10985;SDS011;5546;48.714;8.738;2022-11-09T03:44:13;5.97;;;5.10;;
10985;SDS011;5546;48.714;8.738;2022-11-09T03:46:39;6.97;;;4.93;;
10985;SDS011;5546;48.714;8.738;2022-11-09T03:49:04;7.23;;;5.03;;
10985;SDS011;5546;48.714;8.738;2022-11-09T03:51:30;6.03;;;5.13;;
10985;SDS011;5546;48.714;8.738;2022-11-09T03:53:55;5.60;;;4.83;;
10985;SDS011;5546;48.714;8.738;2022-11-09T03:56:21;7.60;;;5.37;;
10985;SDS011;5546;48.714;8.738;2022-11-09T03:58:46;7.43;;;5.63;;
10985;SDS011;5546;48.714;8.738;2022-11-09T04:01:12;8.17;;;5.43;;
10985;SDS011;5546;48.714;8.738;2022-11-09T04:03:37;6.00;;;4.57;;
10985;SDS011;5546;48.714;8.738;2022-11-09T04:06:03;6.77;;;5.00;;
10985;SDS011;5546;48.714;8.738;2022-11-09T04:08:28;7.00;;;5.40;;
10985;SDS011;5546;48.714;8.738;2022-11-09T04:10:54;8.33;;;5.20;;
10985;SDS011;5546;48.714;8.738;2022-11-09T04:13:20;6.80;;;5.27;;
10985;SDS011;5546;48.714;8.738;2022-11-09T04:15:45;6.50;;;5.20;;
10985;SDS011;5546;48.714;8.738;2022-11-09T04:18:12;9.07;;;5.70;;
10985;SDS011;5546;48.714;8.738;2022-11-09T04:20:38;6.97;;;5.50;;
10985;SDS011;5546;48.714;8.738;2022-11-09T04:23:04;7.70;;;5.60;;
10985;SDS011;5546;48.714;8.738;2022-11-09T04:25:32;7.30;;;6.03;;
10985;SDS011;5546;48.714;8.738;2022-11-09T04:27:59;8.43;;;5.83;;
10985;SDS011;5546;48.714;8.738;2022-11-09T04:30:26;8.47;;;6.20;;
10985;SDS011;5546;48.714;8.738;2022-11-09T04:32:53;6.93;;;5.80;;
10985;SDS011;5546;48.714;8.738;2022-11-09T04:35:20;7.53;;;5.57;;
10985;SDS011;5546;48.714;8.738;2022-11-09T04:40:40;7.00;;;6.03;;
10985;SDS011;5546;48.714;8.738;2022-11-09T04:43:07;7.60;;;5.43;;
10985;SDS011;5546;48.714;8.738;2022-11-09T04:45:36;8.13;;;6.57;;
10985;SDS011;5546;48.714;8.738;2022-11-09T04:48:02;7.77;;;5.90;;
10985;SDS011;5546;48.714;8.738;2022-11-09T04:50:29;8.73;;;6.17;;
10985;SDS011;5546;48.714;8.738;2022-11-09T04:53:09;9.17;;;5.37;;
10985;SDS011;5546;48.714;8.738;2022-11-09T04:55:36;7.13;;;6.00;;
10985;SDS011;5546;48.714;8.738;2022-11-09T04:58:02;7.87;;;6.60;;
10985;SDS011;5546;48.714;8.738;2022-11-09T05:00:29;7.37;;;6.50;;
10985;SDS011;5546;48.714;8.738;2022-11-09T05:02:57;9.63;;;6.50;;
10985;SDS011;5546;48.714;8.738;2022-11-09T05:05:27;11.03;;;6.97;;
10985;SDS011;5546;48.714;8.738;2022-11-09T05:07:53;9.77;;;6.87;;
10985;SDS011;5546;48.714;8.738;2022-11-09T05:10:19;11.60;;;7.43;;
10985;SDS011;5546;48.714;8.738;2022-11-09T05:12:44;11.60;;;7.53;;
10985;SDS011;5546;48.714;8.738;2022-11-09T05:15:11;9.57;;;7.63;;
10985;SDS011;5546;48.714;8.738;2022-11-09T05:17:37;8.83;;;7.93;;
10985;SDS011;5546;48.714;8.738;2022-11-09T05:20:02;10.83;;;8.70;;
10985;SDS011;5546;48.714;8.738;2022-11-09T05:22:28;13.50;;;11.03;;
10985;SDS011;5546;48.714;8.738;2022-11-09T05:25:12;9.90;;;8.43;;
10985;SDS011;5546;48.714;8.738;2022-11-09T05:27:38;11.67;;;8.17;;
10985;SDS011;5546;48.714;8.738;2022-11-09T05:30:04;10.30;;;8.43;;
10985;SDS011;5546;48.714;8.738;2022-11-09T05:32:30;10.77;;;8.00;;
10985;SDS011;5546;48.714;8.738;2022-11-09T05:34:55;11.00;;;8.90;;
10985;SDS011;5546;48.714;8.738;2022-11-09T05:37:21;10.70;;;8.23;;
10985;SDS011;5546;48.714;8.738;2022-11-09T05:39:46;9.60;;;7.07;;
10985;SDS011;5546;48.714;8.738;2022-11-09T05:42:12;14.53;;;10.57;;
10985;SDS011;5546;48.714;8.738;2022-11-09T05:44:38;13.37;;;9.27;;
10985;SDS011;5546;48.714;8.738;2022-11-09T05:47:04;14.80;;;10.87;;
10985;SDS011;5546;48.714;8.738;2022-11-09T05:49:29;13.13;;;10.23;;
10985;SDS011;5546;48.714;8.738;2022-11-09T05:51:55;14.00;;;9.90;;
10985;SDS011;5546;48.714;8.738;2022-11-09T05:54:20;9.60;;;7.63;;
10985;SDS011;5546;48.714;8.738;2022-11-09T05:56:46;11.17;;;8.70;;
10985;SDS011;5546;48.714;8.738;2022-11-09T05:59:11;10.03;;;8.37;;
10985;SDS011;5546;48.714;8.738;2022-11-09T06:01:37;9.53;;;8.53;;
10985;SDS011;5546;48.714;8.738;2022-11-09T06:04:02;11.87;;;8.33;;
10985;SDS011;5546;48.714;8.738;2022-11-09T06:06:28;10.93;;;9.70;;
10985;SDS011;5546;48.714;8.738;2022-11-09T06:08:53;13.10;;;8.93;;
10985;SDS011;5546;48.714;8.738;2022-11-09T06:11:19;11.47;;;8.77;;
10985;SDS011;5546;48.714;8.738;2022-11-09T06:13:45;9.03;;;8.00;;
10985;SDS011;5546;48.714;8.738;2022-11-09T06:16:10;9.80;;;8.03;;
10985;SDS011;5546;48.714;8.738;2022-11-09T06:18:36;10.53;;;8.47;;
10985;SDS011;5546;48.714;8.738;2022-11-09T06:21:02;8.83;;;6.93;;
10985;SDS011;5546;48.714;8.738;2022-11-09T06:23:29;11.30;;;6.80;;
10985;SDS011;5546;48.714;8.738;2022-11-09T06:25:55;10.93;;;9.23;;
10985;SDS011;5546;48.714;8.738;2022-11-09T06:28:22;11.63;;;9.50;;
10985;SDS011;5546;48.714;8.738;2022-11-09T06:30:48;9.37;;;8.33;;
10985;SDS011;5546;48.714;8.738;2022-11-09T06:33:13;10.63;;;8.73;;
10985;SDS011;5546;48.714;8.738;2022-11-09T06:35:39;13.07;;;10.73;;
10985;SDS011;5546;48.714;8.738;2022-11-09T06:38:05;8.73;;;7.80;;
10985;SDS011;5546;48.714;8.738;2022-11-09T06:40:30;10.07;;;9.03;;
10985;SDS011;5546;48.714;8.738;2022-11-09T06:42:57;11.27;;;9.07;;
10985;SDS011;5546;48.714;8.738;2022-11-09T06:45:24;11.80;;;9.93;;
10985;SDS011;5546;48.714;8.738;2022-11-09T06:47:53;17.90;;;13.97;;
10985;SDS011;5546;48.714;8.738;2022-11-09T06:50:23;13.03;;;8.87;;
10985;SDS011;5546;48.714;8.738;2022-11-09T06:52:49;12.70;;;9.40;;
10985;SDS011;5546;48.714;8.738;2022-11-09T06:55:14;12.17;;;9.63;;
10985;SDS011;5546;48.714;8.738;2022-11-09T06:57:40;11.67;;;9.73;;
10985;SDS011;5546;48.714;8.738;2022-11-09T07:00:05;10.10;;;8.37;;
10985;SDS011;5546;48.714;8.738;2022-11-09T07:02:32;18.40;;;10.73;;
10985;SDS011;5546;48.714;8.738;2022-11-09T07:04:57;14.40;;;9.73;;
10985;SDS011;5546;48.714;8.738;2022-11-09T07:07:23;12.17;;;10.17;;
10985;SDS011;5546;48.714;8.738;2022-11-09T07:09:48;12.80;;;10.40;;
10985;SDS011;5546;48.714;8.738;2022-11-09T07:12:14;16.23;;;10.90;;
10985;SDS011;5546;48.714;8.738;2022-11-09T07:14:39;19.07;;;13.27;;
10985;SDS011;5546;48.714;8.738;2022-11-09T07:17:05;14.43;;;9.73;;
10985;SDS011;5546;48.714;8.738;2022-11-09T07:19:30;13.20;;;10.10;;
10985;SDS011;5546;48.714;8.738;2022-11-09T07:21:56;10.40;;;8.40;;
10985;SDS011;5546;48.714;8.738;2022-11-09T07:24:22;10.63;;;8.87;;
10985;SDS011;5546;48.714;8.738;2022-11-09T07:26:48;14.37;;;9.03;;
10985;SDS011;5546;48.714;8.738;2022-11-09T07:29:14;12.90;;;10.40;;
10985;SDS011;5546;48.714;8.738;2022-11-09T07:31:40;11.70;;;8.30;;
10985;SDS011;5546;48.714;8.738;2022-11-09T07:34:05;10.97;;;8.83;;
10985;SDS011;5546;48.714;8.738;2022-11-09T07:36:31;13.30;;;8.50;;
10985;SDS011;5546;48.714;8.738;2022-11-09T07:38:57;16.03;;;11.23;;
10985;SDS011;5546;48.714;8.738;2022-11-09T07:41:23;14.00;;;10.23;;
10985;SDS011;5546;48.714;8.738;2022-11-09T07:43:49;11.07;;;9.87;;
10985;SDS011;5546;48.714;8.738;2022-11-09T07:46:14;15.17;;;11.50;;
10985;SDS011;5546;48.714;8.738;2022-11-09T07:48:40;13.50;;;10.23;;
10985;SDS011;5546;48.714;8.738;2022-11-09T07:51:06;11.50;;;8.43;;
10985;SDS011;5546;48.714;8.738;2022-11-09T07:53:31;10.80;;;7.57;;
10985;SDS011;5546;48.714;8.738;2022-11-09T07:55:58;11.20;;;6.90;;
10985;SDS011;5546;48.714;8.738;2022-11-09T07:58:24;9.73;;;7.33;;
10985;SDS011;5546;48.714;8.738;2022-11-09T08:00:51;8.30;;;6.30;;
10985;SDS011;5546;48.714;8.738;2022-11-09T08:03:17;8.70;;;7.17;;
10985;SDS011;5546;48.714;8.738;2022-11-09T08:05:43;7.33;;;6.60;;
10985;SDS011;5546;48.714;8.738;2022-11-09T08:08:09;7.37;;;6.47;;
10985;SDS011;5546;48.714;8.738;2022-11-09T08:10:36;7.20;;;6.50;;
10985;SDS011;5546;48.714;8.738;2022-11-09T08:13:04;12.43;;;9.70;;
10985;SDS011;5546;48.714;8.738;2022-11-09T08:15:32;10.17;;;8.30;;
10985;SDS011;5546;48.714;8.738;2022-11-09T08:18:03;9.53;;;7.17;;
10985;SDS011;5546;48.714;8.738;2022-11-09T08:20:30;6.93;;;6.10;;
10985;SDS011;5546;48.714;8.738;2022-11-09T08:22:56;8.87;;;5.80;;
10985;SDS011;5546;48.714;8.738;2022-11-09T08:25:22;7.07;;;6.37;;
10985;SDS011;5546;48.714;8.738;2022-11-09T08:27:47;8.90;;;6.27;;
10985;SDS011;5546;48.714;8.738;2022-11-09T08:30:14;8.07;;;6.80;;
10985;SDS011;5546;48.714;8.738;2022-11-09T08:32:42;7.70;;;6.63;;
10985;SDS011;5546;48.714;8.738;2022-11-09T08:35:09;9.27;;;6.60;;
10985;SDS011;5546;48.714;8.738;2022-11-09T08:37:36;7.13;;;6.43;;
10985;SDS011;5546;48.714;8.738;2022-11-09T08:40:02;9.00;;;6.23;;
10985;SDS011;5546;48.714;8.738;2022-11-09T08:42:29;6.47;;;5.83;;
10985;SDS011;5546;48.714;8.738;2022-11-09T08:44:54;7.60;;;5.90;;
10985;SDS011;5546;48.714;8.738;2022-11-09T08:47:20;6.93;;;6.23;;
10985;SDS011;5546;48.714;8.738;2022-11-09T08:49:45;9.87;;;6.67;;
10985;SDS011;5546;48.714;8.738;2022-11-09T08:52:12;6.20;;;5.60;;
10985;SDS011;5546;48.714;8.738;2022-11-09T08:54:38;6.77;;;5.63;;
10985;SDS011;5546;48.714;8.738;2022-11-09T08:57:03;8.83;;;6.20;;
10985;SDS011;5546;48.714;8.738;2022-11-09T08:59:29;8.23;;;7.40;;
10985;SDS011;5546;48.714;8.738;2022-11-09T09:01:54;7.90;;;5.80;;
10985;SDS011;5546;48.714;8.738;2022-11-09T09:04:20;6.70;;;6.10;;
10985;SDS011;5546;48.714;8.738;2022-11-09T09:06:45;7.60;;;5.73;;
10985;SDS011;5546;48.714;8.738;2022-11-09T09:09:11;6.67;;;5.80;;
10985;SDS011;5546;48.714;8.738;2022-11-09T09:11:36;7.47;;;6.10;;
10985;SDS011;5546;48.714;8.738;2022-11-09T09:14:02;6.90;;;6.03;;
10985;SDS011;5546;48.714;8.738;2022-11-09T09:16:27;6.97;;;6.27;;
10985;SDS011;5546;48.714;8.738;2022-11-09T09:18:53;7.30;;;6.13;;
10985;SDS011;5546;48.714;8.738;2022-11-09T09:21:18;7.70;;;6.67;;
10985;SDS011;5546;48.714;8.738;2022-11-09T09:23:46;8.67;;;7.10;;
10985;SDS011;5546;48.714;8.738;2022-11-09T09:26:13;6.97;;;5.87;;
10985;SDS011;5546;48.714;8.738;2022-11-09T09:28:38;7.10;;;5.97;;
10985;SDS011;5546;48.714;8.738;2022-11-09T09:31:04;7.27;;;5.60;;
10985;SDS011;5546;48.714;8.738;2022-11-09T09:33:30;5.60;;;4.50;;
10985;SDS011;5546;48.714;8.738;2022-11-09T09:35:56;6.00;;;4.67;;
10985;SDS011;5546;48.714;8.738;2022-11-09T09:38:23;6.17;;;4.57;;
10985;SDS011;5546;48.714;8.738;2022-11-09T09:40:53;5.17;;;2.70;;
10985;SDS011;5546;48.714;8.738;2022-11-09T09:43:27;6.53;;;3.80;;
10985;SDS011;5546;48.714;8.738;2022-11-09T09:45:56;2.87;;;2.57;;
10985;SDS011;5546;48.714;8.738;2022-11-09T09:48:31;4.20;;;2.33;;
10985;SDS011;5546;48.714;8.738;2022-11-09T09:51:04;4.87;;;2.83;;
10985;SDS011;5546;48.714;8.738;2022-11-09T09:53:44;3.23;;;2.53;;
10985;SDS011;5546;48.714;8.738;2022-11-09T09:56:18;3.30;;;3.00;;
10985;SDS011;5546;48.714;8.738;2022-11-09T09:58:52;4.73;;;3.00;;
10985;SDS011;5546;48.714;8.738;2022-11-09T10:01:43;4.57;;;2.80;;
10985;SDS011;5546;48.714;8.738;2022-11-09T10:04:16;2.37;;;2.17;;
10985;SDS011;5546;48.714;8.738;2022-11-09T10:15:30;3.17;;;2.53;;
10985;SDS011;5546;48.714;8.738;2022-11-09T10:26:08;5.60;;;3.50;;
10985;SDS011;5546;48.714;8.738;2022-11-09T10:28:39;3.50;;;3.20;;
10985;SDS011;5546;48.714;8.738;2022-11-09T10:31:11;3.77;;;3.30;;
10985;SDS011;5546;48.714;8.738;2022-11-09T10:33:41;4.13;;;3.57;;
10985;SDS011;5546;48.714;8.738;2022-11-09T10:36:10;3.87;;;3.17;;
10985;SDS011;5546;48.714;8.738;2022-11-09T10:38:46;4.37;;;3.10;;
10985;SDS011;5546;48.714;8.738;2022-11-09T10:41:19;4.07;;;3.60;;
10985;SDS011;5546;48.714;8.738;2022-11-09T10:43:55;6.57;;;3.40;;
10985;SDS011;5546;48.714;8.738;2022-11-09T10:46:21;3.47;;;3.10;;
10985;SDS011;5546;48.714;8.738;2022-11-09T10:48:47;3.67;;;3.00;;
10985;SDS011;5546;48.714;8.738;2022-11-09T10:51:32;5.30;;;3.13;;
10985;SDS011;5546;48.714;8.738;2022-11-09T10:54:32;4.63;;;3.60;;
10985;SDS011;5546;48.714;8.738;2022-11-09T10:57:00;3.77;;;3.17;;
10985;SDS011;5546;48.714;8.738;2022-11-09T10:59:34;4.67;;;3.30;;
10985;SDS011;5546;48.714;8.738;2022-11-09T11:04:51;3.97;;;3.50;;
10985;SDS011;5546;48.714;8.738;2022-11-09T11:07:37;4.10;;;3.13;;
10985;SDS011;5546;48.714;8.738;2022-11-09T11:12:44;3.87;;;3.33;;
10985;SDS011;5546;48.714;8.738;2022-11-09T11:17:49;6.60;;;4.07;;
10985;SDS011;5546;48.714;8.738;2022-11-09T11:23:19;5.83;;;4.90;;
10985;SDS011;5546;48.714;8.738;2022-11-09T11:28:20;5.80;;;3.67;;
10985;SDS011;5546;48.714;8.738;2022-11-09T11:30:52;6.17;;;3.30;;
10985;SDS011;5546;48.714;8.738;2022-11-09T11:33:17;9.20;;;3.83;;
10985;SDS011;5546;48.714;8.738;2022-11-09T11:47:27;4.00;;;3.50;;
10985;SDS011;5546;48.714;8.738;2022-11-09T11:50:10;4.27;;;3.13;;
10985;SDS011;5546;48.714;8.738;2022-11-09T11:52:53;3.73;;;3.17;;
10985;SDS011;5546;48.714;8.738;2022-11-09T11:55:44;4.20;;;3.10;;
10985;SDS011;5546;48.714;8.738;2022-11-09T11:58:51;3.50;;;3.20;;
10985;SDS011;5546;48.714;8.738;2022-11-09T12:07:19;4.20;;;3.50;;
10985;SDS011;5546;48.714;8.738;2022-11-09T12:09:59;3.60;;;3.13;;
10985;SDS011;5546;48.714;8.738;2022-11-09T12:15:39;5.60;;;3.20;;
10985;SDS011;5546;48.714;8.738;2022-11-09T12:27:12;4.67;;;3.50;;
10985;SDS011;5546;48.714;8.738;2022-11-09T12:38:10;3.87;;;3.17;;
10985;SDS011;5546;48.714;8.738;2022-11-09T12:40:49;4.87;;;3.10;;
10985;SDS011;5546;48.714;8.738;2022-11-09T12:43:25;3.97;;;3.07;;
10985;SDS011;5546;48.714;8.738;2022-11-09T12:46:09;6.20;;;4.27;;
10985;SDS011;5546;48.714;8.738;2022-11-09T12:48:37;6.47;;;4.10;;
10985;SDS011;5546;48.714;8.738;2022-11-09T12:51:03;4.03;;;3.60;;
10985;SDS011;5546;48.714;8.738;2022-11-09T12:53:32;5.93;;;4.07;;
10985;SDS011;5546;48.714;8.738;2022-11-09T12:58:39;4.90;;;3.60;;
10985;SDS011;5546;48.714;8.738;2022-11-09T13:01:06;4.33;;;3.07;;
10985;SDS011;5546;48.714;8.738;2022-11-09T13:03:37;5.83;;;3.80;;
10985;SDS011;5546;48.714;8.738;2022-11-09T13:06:24;4.73;;;3.63;;
10985;SDS011;5546;48.714;8.738;2022-11-09T13:09:02;4.87;;;3.53;;
10985;SDS011;5546;48.714;8.738;2022-11-09T13:11:34;3.90;;;3.10;;
10985;SDS011;5546;48.714;8.738;2022-11-09T13:21:59;3.60;;;3.10;;
10985;SDS011;5546;48.714;8.738;2022-11-09T13:27:31;3.73;;;2.67;;
10985;SDS011;5546;48.714;8.738;2022-11-09T13:41:39;3.90;;;2.60;;
10985;SDS011;5546;48.714;8.738;2022-11-09T13:44:06;4.40;;;3.10;;
10985;SDS011;5546;48.714;8.738;2022-11-09T13:46:40;4.97;;;2.87;;
10985;SDS011;5546;48.714;8.738;2022-11-09T13:52:04;4.33;;;2.83;;
10985;SDS011;5546;48.714;8.738;2022-11-09T13:54:31;3.73;;;2.80;;
10985;SDS011;5546;48.714;8.738;2022-11-09T13:56:56;5.17;;;2.73;;
10985;SDS011;5546;48.714;8.738;2022-11-09T13:59:29;5.37;;;3.03;;
10985;SDS011;5546;48.714;8.738;2022-11-09T14:01:59;6.57;;;2.97;;
10985;SDS011;5546;48.714;8.738;2022-11-09T14:04:36;4.87;;;3.00;;
10985;SDS011;5546;48.714;8.738;2022-11-09T14:07:04;4.80;;;4.10;;
10985;SDS011;5546;48.714;8.738;2022-11-09T14:09:57;6.67;;;3.40;;
10985;SDS011;5546;48.714;8.738;2022-11-09T14:12:46;4.33;;;3.10;;
10985;SDS011;5546;48.714;8.738;2022-11-09T14:21:06;5.70;;;3.50;;
10985;SDS011;5546;48.714;8.738;2022-11-09T14:23:44;4.73;;;2.90;;
10985;SDS011;5546;48.714;8.738;2022-11-09T14:26:17;5.07;;;3.00;;
10985;SDS011;5546;48.714;8.738;2022-11-09T14:28:45;5.10;;;2.70;;
10985;SDS011;5546;48.714;8.738;2022-11-09T14:31:21;5.77;;;2.47;;
10985;SDS011;5546;48.714;8.738;2022-11-09T14:33:59;4.27;;;2.20;;
10985;SDS011;5546;48.714;8.738;2022-11-09T14:36:29;3.10;;;2.10;;
10985;SDS011;5546;48.714;8.738;2022-11-09T14:38:58;8.07;;;2.40;;
10985;SDS011;5546;48.714;8.738;2022-11-09T14:41:26;6.57;;;2.40;;
10985;SDS011;5546;48.714;8.738;2022-11-09T14:43:54;4.47;;;2.07;;
10985;SDS011;5546;48.714;8.738;2022-11-09T14:46:21;4.43;;;2.20;;
10985;SDS011;5546;48.714;8.738;2022-11-09T14:48:53;4.57;;;1.90;;
10985;SDS011;5546;48.714;8.738;2022-11-09T14:51:24;3.83;;;1.93;;
10985;SDS011;5546;48.714;8.738;2022-11-09T14:53:57;6.17;;;2.00;;
10985;SDS011;5546;48.714;8.738;2022-11-09T14:56:25;2.87;;;1.90;;
10985;SDS011;5546;48.714;8.738;2022-11-09T14:58:51;3.27;;;1.90;;
10985;SDS011;5546;48.714;8.738;2022-11-09T15:07:18;4.33;;;1.80;;
10985;SDS011;5546;48.714;8.738;2022-11-09T15:09:43;2.60;;;1.67;;
10985;SDS011;5546;48.714;8.738;2022-11-09T15:12:12;3.83;;;2.03;;
10985;SDS011;5546;48.714;8.738;2022-11-09T15:14:39;5.80;;;2.13;;
10985;SDS011;5546;48.714;8.738;2022-11-09T15:17:26;3.60;;;1.80;;
10985;SDS011;5546;48.714;8.738;2022-11-09T15:20:03;3.47;;;2.00;;
10985;SDS011;5546;48.714;8.738;2022-11-09T15:22:55;2.87;;;1.70;;
10985;SDS011;5546;48.714;8.738;2022-11-09T15:25:34;3.40;;;1.67;;
10985;SDS011;5546;48.714;8.738;2022-11-09T15:28:21;4.33;;;2.20;;
10985;SDS011;5546;48.714;8.738;2022-11-09T15:35:57;4.50;;;1.83;;
10985;SDS011;5546;48.714;8.738;2022-11-09T15:38:39;1.73;;;1.63;;
10985;SDS011;5546;48.714;8.738;2022-11-09T15:41:13;3.60;;;1.70;;
10985;SDS011;5546;48.714;8.738;2022-11-09T15:43:41;3.47;;;1.80;;
10985;SDS011;5546;48.714;8.738;2022-11-09T15:46:10;4.70;;;1.80;;
10985;SDS011;5546;48.714;8.738;2022-11-09T15:48:37;4.93;;;2.10;;
10985;SDS011;5546;48.714;8.738;2022-11-09T15:51:03;4.93;;;2.23;;
10985;SDS011;5546;48.714;8.738;2022-11-09T15:53:29;8.97;;;2.03;;
10985;SDS011;5546;48.714;8.738;2022-11-09T15:55:55;4.53;;;1.97;;
10985;SDS011;5546;48.714;8.738;2022-11-09T15:58:20;6.10;;;3.17;;
10985;SDS011;5546;48.714;8.738;2022-11-09T16:00:46;6.27;;;2.23;;
10985;SDS011;5546;48.714;8.738;2022-11-09T16:03:11;5.40;;;2.70;;
10985;SDS011;5546;48.714;8.738;2022-11-09T16:05:37;4.10;;;2.50;;
10985;SDS011;5546;48.714;8.738;2022-11-09T16:08:03;4.43;;;3.33;;
10985;SDS011;5546;48.714;8.738;2022-11-09T16:10:31;10.43;;;5.90;;
10985;SDS011;5546;48.714;8.738;2022-11-09T16:13:01;7.00;;;3.80;;
10985;SDS011;5546;48.714;8.738;2022-11-09T16:15:28;6.27;;;5.07;;
10985;SDS011;5546;48.714;8.738;2022-11-09T16:17:54;11.60;;;7.27;;
10985;SDS011;5546;48.714;8.738;2022-11-09T16:20:19;9.27;;;6.23;;
10985;SDS011;5546;48.714;8.738;2022-11-09T16:22:45;9.00;;;6.20;;
10985;SDS011;5546;48.714;8.738;2022-11-09T16:25:11;9.07;;;5.60;;
10985;SDS011;5546;48.714;8.738;2022-11-09T16:27:38;8.17;;;5.23;;
10985;SDS011;5546;48.714;8.738;2022-11-09T16:30:04;8.67;;;5.20;;
10985;SDS011;5546;48.714;8.738;2022-11-09T16:32:32;7.23;;;4.60;;
10985;SDS011;5546;48.714;8.738;2022-11-09T16:34:57;9.80;;;4.00;;
10985;SDS011;5546;48.714;8.738;2022-11-09T16:37:23;7.77;;;3.30;;
10985;SDS011;5546;48.714;8.738;2022-11-09T16:39:48;6.50;;;3.60;;
10985;SDS011;5546;48.714;8.738;2022-11-09T16:42:14;8.00;;;3.30;;
10985;SDS011;5546;48.714;8.738;2022-11-09T16:44:42;7.83;;;3.20;;
10985;SDS011;5546;48.714;8.738;2022-11-09T16:47:12;7.17;;;3.30;;
10985;SDS011;5546;48.714;8.738;2022-11-09T16:49:39;5.47;;;2.50;;
10985;SDS011;5546;48.714;8.738;2022-11-09T16:52:05;6.33;;;3.40;;
10985;SDS011;5546;48.714;8.738;2022-11-09T16:54:31;7.90;;;3.73;;
10985;SDS011;5546;48.714;8.738;2022-11-09T16:56:56;7.83;;;4.07;;
10985;SDS011;5546;48.714;8.738;2022-11-09T16:59:22;8.97;;;3.30;;
10985;SDS011;5546;48.714;8.738;2022-11-09T17:01:52;5.90;;;4.03;;
10985;SDS011;5546;48.714;8.738;2022-11-09T17:04:19;8.70;;;3.47;;